Time;durP1;ratioP1;P1;durP2;ratioP2;P2;SDS_P1;SDS_P2;PMS_P1;PMS_P2;Temp;Humidity;BMP_temperature;BMP_pressure;BME280_temperature;BME280_humidity;BME280_pressure;Samples;Min_cycle;Max_cycle;Signal;HPM_P1;HPM_P2
2022/09/16 00:00:12;;;;;;;4.90;0.90;;;;;;;11.62;73.08;99475.82;110258;1232;140404;-62
2022/09/16 00:02:37;;;;;;;6.60;1.20;;;;;;;11.59;73.20;99476.39;110322;1232;97880;-59
2022/09/16 00:05:03;;;;;;;7.60;1.10;;;;;;;11.56;73.27;99477.52;110276;1231;138677;-62
2022/09/16 00:07:29;;;;;;;4.30;1.30;;;;;;;11.53;73.40;99479.65;110479;1232;97712;-61
2022/09/16 00:09:54;;;;;;;8.00;1.40;;;;;;;11.51;73.43;99477.12;110320;1232;109209;-61
2022/09/16 00:12:20;;;;;;;4.50;1.30;;;;;;;11.47;73.62;99479.14;110215;1232;138470;-61
2022/09/16 00:14:46;;;;;;;5.20;1.30;;;;;;;11.43;73.55;99483.36;110441;1231;96652;-60
2022/09/16 00:17:12;;;;;;;4.80;1.10;;;;;;;11.40;73.69;99485.70;110300;1231;138850;-61
2022/09/16 00:19:37;;;;;;;4.90;1.10;;;;;;;11.36;73.64;99487.55;110294;1232;97590;-62
2022/09/16 00:22:02;;;;;;;4.60;1.20;;;;;;;11.33;73.83;99493.16;110267;1231;139630;-66
2022/09/16 00:24:28;;;;;;;2.10;1.30;;;;;;;11.30;73.92;99500.48;110235;1232;97589;-62
2022/09/16 00:26:54;;;;;;;5.40;1.30;;;;;;;11.27;74.00;99501.58;110386;1232;97859;-62
2022/09/16 00:29:19;;;;;;;3.60;0.90;;;;;;;11.25;74.15;99505.11;110235;1232;138895;-61
2022/09/16 00:31:44;;;;;;;6.20;1.50;;;;;;;11.24;74.13;99504.45;110307;1232;96627;-63
2022/09/16 00:34:10;;;;;;;5.70;1.80;;;;;;;11.23;74.23;99503.42;110301;1231;138980;-61
2022/09/16 00:36:35;;;;;;;2.00;0.80;;;;;;;11.22;74.21;99505.98;110307;1230;97585;-61
2022/09/16 00:39:00;;;;;;;2.30;1.00;;;;;;;11.21;74.54;99505.02;110293;1230;97656;-61
2022/09/16 00:41:32;;;;;;;3.30;1.10;;;;;;;11.18;74.56;99504.64;110307;1231;138224;-63
2022/09/16 00:44:01;;;;;;;5.10;1.00;;;;;;;11.17;74.72;99499.91;110311;1230;99143;-61
2022/09/16 00:46:47;;;;;;;2.80;1.30;;;;;;;11.15;74.81;99498.80;110298;1230;138661;-63
2022/09/16 00:49:27;;;;;;;3.60;1.20;;;;;;;11.13;75.14;99504.99;110339;1232;97621;-60
2022/09/16 00:51:59;;;;;;;4.40;0.80;;;;;;;11.11;75.07;99505.30;110308;1230;97724;-63
2022/09/16 00:54:24;;;;;;;;;;;;;;;11.07;75.22;99503.02;110380;1230;141046;-60
2022/09/16 00:56:54;;;;;;;2.30;0.80;;;;;;;11.03;75.35;99505.45;110397;1229;97638;-62
2022/09/16 00:59:27;;;;;;;3.70;1.20;;;;;;;11.00;75.19;99507.05;110170;1230;140470;-63
2022/09/16 01:01:54;;;;;;;7.10;1.20;;;;;;;10.98;75.38;99506.66;110255;1232;97615;-60
2022/09/16 01:04:30;;;;;;;6.30;1.10;;;;;;;10.95;75.42;99503.81;110205;1232;138971;-61
2022/09/16 01:06:56;;;;;;;4.60;1.20;;;;;;;10.92;75.54;99503.82;110227;1231;112967;-62
2022/09/16 01:09:24;;;;;;;4.60;1.10;;;;;;;10.88;75.55;99500.30;110356;1232;97637;-62
2022/09/16 01:11:50;;;;;;;6.80;1.40;;;;;;;10.86;75.70;99507.58;110181;1232;138313;-62
2022/09/16 01:17:21;;;;;;;3.60;1.20;;;;;;;10.80;75.64;99505.83;110189;1232;138164;-62
2022/09/16 01:20:01;;;;;;;10.50;1.50;;;;;;;10.76;75.80;99504.63;110368;1232;110933;-63
2022/09/16 01:23:04;;;;;;;4.20;1.20;;;;;;;10.75;75.87;99503.45;110212;1232;140995;-62
2022/09/16 01:26:07;;;;;;;2.60;1.00;;;;;;;10.72;76.11;99506.44;110230;1232;107787;-61
2022/09/16 01:28:45;;;;;;;3.30;1.40;;;;;;;10.71;76.25;99507.45;110156;1231;138751;-61
2022/09/16 01:31:22;;;;;;;2.20;1.10;;;;;;;10.69;76.18;99508.80;110321;1232;99004;-60
2022/09/16 01:34:17;;;;;;;1.90;0.90;;;;;;;10.68;76.26;99507.95;110261;1232;111175;-63
2022/09/16 01:37:11;;;;;;;3.40;1.10;;;;;;;10.66;76.58;99505.25;110296;1232;99290;-60
2022/09/16 01:40:02;;;;;;;1.50;1.00;;;;;;;10.64;76.68;99505.55;110236;1231;107560;-60
2022/09/16 01:42:41;;;;;;;2.60;1.10;;;;;;;10.62;76.71;99502.30;110346;1232;97682;-61
2022/09/16 01:45:10;;;;;;;4.50;0.80;;;;;;;10.59;76.73;99501.92;110301;1231;97673;-62
2022/09/16 01:48:07;;;;;;;3.20;1.00;;;;;;;10.58;76.99;99502.57;110141;1232;138366;-62
2022/09/16 01:51:11;;;;;;;8.10;1.20;;;;;;;10.55;77.16;99502.89;110265;1232;100541;-60
2022/09/16 01:53:52;;;;;;;6.70;1.10;;;;;;;10.52;77.25;99509.35;110172;1232;139005;-63
2022/09/16 01:56:31;;;;;;;3.70;1.10;;;;;;;10.50;77.35;99505.75;110268;1232;97689;-61
2022/09/16 01:59:15;;;;;;;3.80;1.20;;;;;;;10.47;77.43;99506.48;110185;1232;139630;-60
2022/09/16 02:02:03;;;;;;;4.00;1.00;;;;;;;10.43;77.46;99509.54;110293;1232;111589;-61
2022/09/16 02:04:35;;;;;;;4.60;1.10;;;;;;;10.41;77.39;99505.55;110268;1232;139180;-62
2022/09/16 02:07:04;;;;;;;4.10;1.00;;;;;;;10.39;77.31;99511.43;110293;1232;108584;-61
2022/09/16 02:09:36;;;;;;;2.00;0.90;;;;;;;10.36;77.54;99510.33;110326;1231;98452;-61
2022/09/16 02:12:05;;;;;;;4.50;1.10;;;;;;;10.35;77.53;99512.38;110185;1231;140472;-61
2022/09/16 02:14:38;;;;;;;4.50;0.90;;;;;;;10.33;77.73;99517.48;110342;1232;111360;-61
2022/09/16 02:17:08;;;;;;;4.40;0.90;;;;;;;10.31;78.03;99510.27;110249;1231;139791;-60
2022/09/16 02:19:53;;;;;;;7.10;1.50;;;;;;;10.30;78.30;99511.05;110318;1232;108144;-60
2022/09/16 02:22:24;;;;;;;5.30;1.10;;;;;;;10.29;78.27;99508.81;110316;1232;138997;-62
2022/09/16 02:24:51;;;;;;;7.40;1.40;;;;;;;10.27;78.27;99508.21;110272;1232;97600;-61
2022/09/16 02:27:21;;;;;;;3.20;1.20;;;;;;;10.25;78.23;99504.05;110276;1232;97626;-61
2022/09/16 02:29:51;;;;;;;5.60;1.20;;;;;;;10.24;78.24;99505.21;110195;1231;139470;-63
2022/09/16 02:32:19;;;;;;;9.00;1.80;;;;;;;10.21;78.51;99510.57;110339;1231;108238;-62
2022/09/16 02:34:49;;;;;;;3.20;1.00;;;;;;;10.18;78.52;99506.44;110185;1231;138619;-61
2022/09/16 02:37:18;;;;;;;8.00;1.30;;;;;;;10.16;78.77;99505.85;110340;1232;97626;-62
2022/09/16 02:39:49;;;;;;;3.70;1.10;;;;;;;10.14;78.81;99509.73;110284;1232;111853;-60
2022/09/16 02:42:15;;;;;;;2.10;1.20;;;;;;;10.11;78.89;99517.73;110101;1232;140159;-60
2022/09/16 02:44:42;;;;;;;4.60;1.90;;;;;;;10.08;79.10;99512.86;110256;1232;98034;-61
2022/09/16 02:47:16;;;;;;;7.20;1.30;;;;;;;10.06;79.13;99512.29;110204;1232;138754;-60
2022/09/16 02:50:01;;;;;;;6.90;1.40;;;;;;;10.04;79.17;99514.75;110280;1232;96609;-61
2022/09/16 02:52:27;;;;;;;6.20;1.50;;;;;;;10.03;79.59;99511.90;110181;1232;138432;-63
2022/09/16 02:55:04;;;;;;;7.60;1.40;;;;;;;10.04;79.80;99516.70;110320;1232;97630;-63
2022/09/16 02:57:30;;;;;;;2.60;1.80;;;;;;;10.02;80.05;99515.59;110224;1232;108342;-60
2022/09/16 02:59:56;;;;;;;4.30;1.40;;;;;;;10.00;80.09;99517.11;110116;1232;138392;-61
2022/09/16 03:02:22;;;;;;;5.20;1.80;;;;;;;9.99;80.09;99517.02;110415;1231;98264;-60
2022/09/16 03:04:48;;;;;;;7.30;1.90;;;;;;;9.96;80.06;99520.75;110227;1232;138144;-61
2022/09/16 03:07:14;;;;;;;2.00;1.50;;;;;;;9.95;80.27;99522.23;110308;1231;97625;-62
2022/09/16 03:09:45;;;;;;;3.20;1.20;;;;;;;9.94;80.35;99523.02;110343;1232;97486;-62
2022/09/16 03:12:19;;;;;;;3.30;1.20;;;;;;;9.92;80.53;99528.28;110385;1232;138833;-61
2022/09/16 03:15:06;;;;;;;4.20;1.40;;;;;;;9.90;80.72;99524.30;110407;1232;112125;-62
2022/09/16 03:17:56;;;;;;;10.50;1.60;;;;;;;9.88;80.50;99524.77;110269;1230;139935;-61
2022/09/16 03:20:32;;;;;;;5.50;2.10;;;;;;;9.85;80.73;99529.79;110444;1231;107306;-62
2022/09/16 03:23:13;;;;;;;5.00;1.30;;;;;;;9.83;80.91;99526.52;110217;1231;139876;-60
2022/09/16 03:25:44;;;;;;;6.60;1.30;;;;;;;9.82;80.98;99527.98;110367;1231;97690;-62
2022/09/16 03:28:19;;;;;;;3.90;1.80;;;;;;;9.82;81.05;99523.00;110259;1232;141199;-63
2022/09/16 03:30:57;;;;;;;4.60;1.20;;;;;;;9.82;81.39;99524.99;110447;1231;99190;-61
2022/09/16 03:34:05;;;;;;;3.40;1.60;;;;;;;9.81;81.40;99525.02;110451;1230;108356;-60
2022/09/16 03:36:35;;;;;;;9.20;1.70;;;;;;;9.80;81.33;99522.94;110525;1230;97616;-61
2022/09/16 03:39:02;;;;;;;5.60;1.70;;;;;;;9.79;81.34;99521.06;110417;1231;97364;-62
2022/09/16 03:41:31;;;;;;;6.80;1.50;;;;;;;9.79;81.40;99521.08;110360;1232;140278;-61
2022/09/16 03:43:57;;;;;;;3.70;1.60;;;;;;;9.78;81.43;99520.05;110423;1232;98285;-59
2022/09/16 03:46:25;;;;;;;4.70;1.80;;;;;;;9.76;81.47;99516.20;110302;1230;140001;-60
2022/09/16 03:48:51;;;;;;;5.80;1.60;;;;;;;9.75;81.53;99516.08;110490;1232;97667;-62
2022/09/16 03:51:16;;;;;;;2.80;1.40;;;;;;;9.75;81.62;99518.77;110344;1231;98074;-60
2022/09/16 03:53:41;;;;;;;8.80;1.80;;;;;;;9.75;81.76;99519.11;110306;1231;138250;-62
2022/09/16 03:56:07;;;;;;;5.10;1.70;;;;;;;9.74;82.06;99520.81;110196;1231;98948;-60
2022/09/16 03:58:32;;;;;;;2.60;1.60;;;;;;;9.72;82.07;99518.41;110291;1231;138371;-60
2022/09/16 04:00:57;;;;;;;7.20;1.60;;;;;;;9.70;82.10;99520.12;110355;1230;97712;-58
2022/09/16 04:03:23;;;;;;;3.10;1.60;;;;;;;9.68;82.15;99519.15;110330;1232;99163;-60
2022/09/16 04:05:55;;;;;;;6.50;1.50;;;;;;;9.67;82.21;99521.17;110225;1232;138685;-60
2022/09/16 04:08:22;;;;;;;3.20;1.20;;;;;;;9.66;82.36;99523.55;110365;1232;97596;-59
2022/09/16 04:11:04;;;;;;;3.50;1.70;;;;;;;9.66;82.38;99527.67;110397;1232;138689;-62
2022/09/16 04:13:31;;;;;;;8.80;2.20;;;;;;;9.66;82.79;99527.67;110359;1231;99506;-63
2022/09/16 04:15:56;;;;;;;5.10;1.80;;;;;;;9.66;82.81;99524.30;110310;1231;97599;-60
2022/09/16 04:18:22;;;;;;;4.80;1.30;;;;;;;9.67;82.79;99533.18;110341;1232;139715;-59
2022/09/16 04:20:47;;;;;;;8.80;1.90;;;;;;;9.66;82.97;99526.05;110436;1232;97480;-61
2022/09/16 04:23:13;;;;;;;3.10;1.50;;;;;;;9.67;83.06;99533.69;110285;1232;140231;-58
2022/09/16 04:25:39;;;;;;;5.10;1.90;;;;;;;9.67;83.11;99531.20;110423;1232;97719;-63
2022/09/16 04:28:06;;;;;;;4.00;1.70;;;;;;;9.68;83.41;99526.13;110218;1231;138360;-61
2022/09/16 04:30:32;;;;;;;6.40;1.60;;;;;;;9.68;83.59;99520.79;110235;1232;98024;-62
2022/09/16 04:32:57;;;;;;;7.80;1.70;;;;;;;9.68;83.68;99521.11;110437;1231;97746;-61
2022/09/16 04:35:23;;;;;;;22.50;1.90;;;;;;;9.70;83.58;99528.51;110210;1231;138627;-61
2022/09/16 04:37:50;;;;;;;5.90;1.90;;;;;;;9.72;83.73;99523.07;110485;1232;97597;-61
2022/09/16 04:40:16;;;;;;;7.70;1.70;;;;;;;9.71;83.78;99526.48;110301;1231;139546;-61
2022/09/16 04:42:47;;;;;;;5.00;1.70;;;;;;;9.72;83.69;99528.02;110474;1231;101467;-60
2022/09/16 04:45:12;;;;;;;;;;;;;;;9.72;83.83;99529.97;110462;1232;97657;-61
2022/09/16 04:47:38;;;;;;;5.60;2.00;;;;;;;9.72;83.91;99528.92;110307;1231;126203;-62
2022/09/16 04:50:04;;;;;;;4.40;1.50;;;;;;;9.74;84.10;99530.06;110446;1231;97727;-61
2022/09/16 04:52:30;;;;;;;7.20;1.70;;;;;;;9.74;84.25;99528.44;110247;1232;139647;-62
2022/09/16 04:54:55;;;;;;;7.20;2.40;;;;;;;9.75;84.25;99533.94;110421;1232;97692;-63
2022/09/16 04:57:20;;;;;;;6.80;1.70;;;;;;;9.74;84.22;99534.30;110404;1232;99179;-60
2022/09/16 04:59:46;;;;;;;6.40;1.90;;;;;;;9.74;84.35;99536.29;110222;1232;140290;-61
2022/09/16 05:02:11;;;;;;;12.90;2.40;;;;;;;9.74;84.47;99539.34;110348;1231;97746;-61
2022/09/16 05:04:37;;;;;;;7.40;2.20;;;;;;;9.76;84.42;99542.08;110253;1231;139212;-63
2022/09/16 05:07:02;;;;;;;7.10;1.90;;;;;;;9.77;84.69;99548.06;110376;1232;98108;-63
2022/09/16 05:09:27;;;;;;;2.50;1.70;;;;;;;9.78;84.87;99547.52;110431;1231;97784;-61
2022/09/16 05:11:53;;;;;;;3.90;1.70;;;;;;;9.79;84.78;99545.33;110239;1232;138694;-63
2022/09/16 05:14:18;;;;;;;4.60;1.50;;;;;;;9.80;84.86;99547.58;110456;1232;98053;-61
2022/09/16 05:16:44;;;;;;;15.80;2.40;;;;;;;9.81;84.85;99546.27;110252;1231;140519;-60
2022/09/16 05:19:12;;;;;;;5.20;2.00;;;;;;;9.82;85.04;99545.69;110482;1232;97692;-61
2022/09/16 05:21:38;;;;;;;7.80;2.70;;;;;;;9.83;84.93;99547.03;110287;1231;98194;-61
2022/09/16 05:24:07;;;;;;;9.70;2.80;;;;;;;9.85;85.27;99543.34;110342;1232;139892;-63
2022/09/16 05:26:34;;;;;;;4.00;2.00;;;;;;;9.87;85.31;99543.77;110461;1232;97134;-60
2022/09/16 05:29:08;;;;;;;7.60;2.00;;;;;;;9.88;85.32;99540.83;110233;1232;138363;-60
2022/09/16 05:31:36;;;;;;;10.90;1.90;;;;;;;9.92;85.29;99545.98;110163;1231;108823;-60
2022/09/16 05:34:22;;;;;;;9.60;1.90;;;;;;;9.94;85.32;99549.04;110323;1231;97640;-61
2022/09/16 05:36:49;;;;;;;9.40;2.00;;;;;;;9.97;85.37;99549.06;110258;1232;97706;-61
2022/09/16 05:39:17;;;;;;;7.50;1.80;;;;;;;10.00;85.44;99549.77;110227;1231;97618;-61
2022/09/16 05:41:43;;;;;;;11.40;1.60;;;;;;;10.02;85.43;99547.35;110021;1231;138119;-61
2022/09/16 05:44:08;;;;;;;5.50;1.50;;;;;;;10.05;85.35;99548.79;110291;1233;97744;-62
2022/09/16 05:46:34;;;;;;;6.70;2.00;;;;;;;10.08;85.47;99549.64;110610;1232;139374;-61
2022/09/16 05:49:00;;;;;;;5.70;1.90;;;;;;;10.12;85.47;99552.68;110250;1230;112317;-60
2022/09/16 05:51:26;;;;;;;7.70;2.10;;;;;;;10.14;85.56;99553.41;112403;1231;95708;-61
2022/09/16 05:53:52;;;;;;;3.80;1.70;;;;;;;10.18;85.71;99546.59;112331;1231;139920;-62
2022/09/16 05:56:24;;;;;;;6.30;1.70;;;;;;;10.23;85.40;99547.58;112377;1231;95780;-63
2022/09/16 05:58:52;;;;;;;7.90;1.80;;;;;;;10.28;85.45;99552.99;111715;1230;138567;-62
2022/09/16 06:01:20;;;;;;;7.90;2.30;;;;;;;10.33;85.55;99548.59;110589;1232;100804;-62
2022/09/16 06:03:47;;;;;;;6.40;1.70;;;;;;;10.37;85.61;99547.77;110184;1232;107928;-60
2022/09/16 06:06:27;;;;;;;6.40;1.40;;;;;;;10.42;85.62;99552.48;110142;1232;138934;-61
2022/09/16 06:08:54;;;;;;;11.10;1.70;;;;;;;10.46;85.67;99552.38;110319;1232;97709;-61
2022/09/16 06:11:21;;;;;;;3.40;1.70;;;;;;;10.49;85.60;99550.41;110164;1232;138320;-61
2022/09/16 06:13:46;;;;;;;9.70;2.20;;;;;;;10.53;85.56;99550.35;110428;1232;98216;-62
2022/09/16 06:16:15;;;;;;;3.20;1.70;;;;;;;10.58;85.62;99547.75;110183;1231;138948;-62
2022/09/16 06:18:41;;;;;;;6.00;1.70;;;;;;;10.61;85.45;99545.55;110148;1231;97712;-63
2022/09/16 06:21:09;;;;;;;4.30;2.10;;;;;;;10.65;85.46;99549.06;110088;1231;97702;-64
2022/09/16 06:23:35;;;;;;;9.30;1.90;;;;;;;10.67;85.37;99538.94;110106;1231;138241;-63
2022/09/16 06:26:04;;;;;;;7.50;2.20;;;;;;;10.70;85.28;99539.11;110268;1232;97781;-63
2022/09/16 06:28:30;;;;;;;4.10;1.70;;;;;;;10.75;85.26;99543.14;110112;1231;140756;-64
2022/09/16 06:31:14;;;;;;;9.90;2.30;;;;;;;10.81;85.17;99531.70;110295;1232;97762;-62
2022/09/16 06:33:40;;;;;;;8.30;2.30;;;;;;;10.91;85.07;99531.77;110333;1231;111094;-60
2022/09/16 06:36:17;;;;;;;15.20;2.20;;;;;;;10.98;85.05;99524.33;110066;1231;138531;-62
2022/09/16 06:38:44;;;;;;;8.70;2.60;;;;;;;11.06;84.90;99529.91;110354;1231;107191;-60
2022/09/16 06:41:11;;;;;;;7.60;2.50;;;;;;;11.13;84.81;99531.08;111426;1232;140292;-62
2022/09/16 06:43:38;;;;;;;7.20;3.20;;;;;;;11.18;84.58;99529.71;110310;1232;97653;-60
2022/09/16 06:46:12;;;;;;;10.60;3.10;;;;;;;11.19;84.46;99531.08;110361;1232;138632;-63
2022/09/16 06:48:39;;;;;;;10.80;2.80;;;;;;;11.20;84.16;99535.27;110343;1231;99216;-61
2022/09/16 06:51:06;;;;;;;9.80;3.50;;;;;;;11.18;83.83;99530.58;110521;1232;97617;-62
2022/09/16 06:53:32;;;;;;;19.50;3.30;;;;;;;11.19;83.88;99536.62;110267;1231;138912;-60
2022/09/16 06:56:04;;;;;;;10.40;2.40;;;;;;;11.20;83.59;99529.73;110570;1232;98376;-61
2022/09/16 06:58:35;;;;;;;10.50;3.30;;;;;;;11.25;83.41;99536.53;110272;1231;140448;-62
2022/09/16 07:01:11;;;;;;;6.80;2.30;;;;;;;11.30;83.17;99530.89;110454;1231;101225;-61
2022/09/16 07:03:38;;;;;;;10.50;2.60;;;;;;;11.34;83.08;99531.15;110414;1231;108650;-62
2022/09/16 07:06:06;;;;;;;9.60;2.70;;;;;;;11.39;83.02;99524.41;110276;1232;139276;-61
2022/09/16 07:08:33;;;;;;;11.20;3.10;;;;;;;11.49;82.84;99532.16;110392;1232;97924;-61
2022/09/16 07:11:03;;;;;;;11.80;2.40;;;;;;;11.60;82.70;99536.27;110220;1231;138883;-60
2022/09/16 07:13:29;;;;;;;11.50;2.20;;;;;;;11.70;82.48;99548.67;110483;1232;99706;-61
2022/09/16 07:15:59;;;;;;;7.00;2.60;;;;;;;11.75;82.05;99538.67;110729;1232;96843;-59
2022/09/16 07:18:24;;;;;;;12.30;2.90;;;;;;;11.83;82.06;99538.02;110265;1231;138160;-61
2022/09/16 07:20:50;;;;;;;5.80;2.00;;;;;;;11.91;81.76;99539.59;110378;1232;97714;-60
2022/09/16 07:23:15;;;;;;;10.60;3.00;;;;;;;11.97;81.55;99542.07;110348;1231;138745;-60
2022/09/16 07:25:40;;;;;;;5.80;1.70;;;;;;;11.99;81.16;99542.27;110268;1232;97647;-60
2022/09/16 07:28:06;;;;;;;8.40;2.30;;;;;;;12.02;80.86;99539.77;110348;1232;138341;-61
2022/09/16 07:30:33;;;;;;;7.30;1.80;;;;;;;12.05;80.80;99537.95;110399;1231;99174;-59
2022/09/16 07:32:59;;;;;;;6.80;2.10;;;;;;;12.12;80.34;99538.93;110319;1231;98274;-60
2022/09/16 07:35:24;;;;;;;4.30;1.40;;;;;;;12.18;79.83;99547.67;110227;1231;138087;-60
2022/09/16 07:37:49;;;;;;;6.30;1.50;;;;;;;12.23;79.35;99538.73;110403;1232;97598;-59
2022/09/16 07:40:16;;;;;;;7.10;1.80;;;;;;;12.32;79.15;99535.44;110060;1232;138337;-61
2022/09/16 07:42:42;;;;;;;14.90;1.90;;;;;;;12.37;79.05;99534.87;110298;1231;97863;-60
2022/09/16 07:45:07;;;;;;;7.00;1.70;;;;;;;12.45;78.96;99534.87;110612;1230;97680;-61
2022/09/16 07:47:33;;;;;;;7.10;1.60;;;;;;;12.53;78.40;99540.57;110322;1232;138507;-59
2022/09/16 07:49:58;;;;;;;6.70;1.80;;;;;;;12.55;77.75;99544.40;110412;1232;97724;-61
2022/09/16 07:52:28;;;;;;;6.80;1.60;;;;;;;12.57;77.13;99541.91;110181;1232;138504;-60
2022/09/16 07:54:56;;;;;;;9.10;2.00;;;;;;;12.63;76.79;99556.17;110402;1232;97845;-60
2022/09/16 07:57:22;;;;;;;10.30;1.60;;;;;;;12.68;75.73;99549.73;110346;1231;97687;-62
2022/09/16 07:59:47;;;;;;;12.00;1.80;;;;;;;12.80;76.23;99549.15;110010;1232;139749;-60
2022/09/16 08:02:13;;;;;;;11.60;1.70;;;;;;;12.91;75.59;99557.65;110332;1231;96496;-59
2022/09/16 08:04:38;;;;;;;5.80;2.00;;;;;;;12.97;75.23;99548.61;110139;1231;139944;-60
2022/09/16 08:07:05;;;;;;;7.90;1.70;;;;;;;13.04;75.03;99554.56;110370;1232;97598;-60
2022/09/16 08:09:30;;;;;;;6.30;1.40;;;;;;;13.07;74.56;99541.09;110426;1231;98851;-59
2022/09/16 08:11:55;;;;;;;8.20;1.30;;;;;;;13.13;74.32;99543.34;110138;1232;138874;-60
2022/09/16 08:14:20;;;;;;;7.70;1.70;;;;;;;13.15;73.81;99539.59;110375;1232;97706;-61
2022/09/16 08:16:50;;;;;;;6.90;1.10;;;;;;;13.17;73.59;99546.46;110200;1231;139963;-62
2022/09/16 08:19:15;;;;;;;7.50;1.10;;;;;;;13.19;72.85;99535.23;110260;1232;100393;-59
2022/09/16 08:21:40;;;;;;;5.10;1.40;;;;;;;13.19;72.75;99533.94;110229;1232;97609;-61
2022/09/16 08:24:06;;;;;;;7.90;1.60;;;;;;;13.27;72.62;99539.26;110401;1231;139544;-60
2022/09/16 08:26:31;;;;;;;5.00;1.40;;;;;;;13.35;72.10;99538.70;110299;1232;97622;-60
2022/09/16 08:28:56;;;;;;;14.30;1.50;;;;;;;13.42;71.39;99542.89;110325;1232;138849;-60
2022/09/16 08:31:21;;;;;;;8.50;1.60;;;;;;;13.46;71.11;99539.70;110296;1232;97603;-63
2022/09/16 08:33:47;;;;;;;8.10;1.30;;;;;;;13.52;70.79;99538.41;110368;1233;97742;-60
2022/09/16 08:36:15;;;;;;;4.90;1.00;;;;;;;13.56;70.47;99544.19;110473;1232;137438;-62
2022/09/16 08:38:42;;;;;;;24.30;2.10;;;;;;;13.59;69.98;99539.80;110384;1232;108462;-60
2022/09/16 08:41:45;;;;;;;4.50;1.20;;;;;;;13.67;69.80;99544.61;110161;1232;139057;-62
2022/09/16 08:44:31;;;;;;;9.20;2.10;;;;;;;13.76;69.12;99544.66;110279;1231;97748;-62
2022/09/16 08:47:00;;;;;;;12.10;1.50;;;;;;;13.82;67.94;99547.80;110139;1232;139693;-62
2022/09/16 08:49:42;;;;;;;6.90;1.10;;;;;;;13.80;67.46;99536.63;110260;1231;100454;-61
2022/09/16 08:52:17;;;;;;;7.60;1.10;;;;;;;13.82;67.28;99540.44;110227;1230;138756;-61
2022/09/16 08:55:05;;;;;;;6.90;1.10;;;;;;;13.85;67.54;99535.39;110320;1230;97649;-61
2022/09/16 08:57:37;;;;;;;9.60;1.70;;;;;;;13.92;67.84;99540.25;110193;1230;97737;-61
2022/09/16 09:00:15;;;;;;;8.20;1.50;;;;;;;13.99;67.47;99536.48;110123;1230;139679;-60
2022/09/16 09:02:57;;;;;;;13.90;1.50;;;;;;;14.00;67.05;99539.84;110279;1231;101029;-60
2022/09/16 09:05:55;;;;;;;9.60;1.30;;;;;;;14.01;66.13;99544.06;110071;1230;139909;-62
2022/09/16 09:08:39;;;;;;;5.20;1.30;;;;;;;14.04;66.10;99527.67;110272;1231;97666;-61
2022/09/16 09:11:22;;;;;;;4.30;1.10;;;;;;;14.17;66.05;99530.13;110188;1232;138013;-60
2022/09/16 09:14:01;;;;;;;10.10;1.10;;;;;;;14.26;66.05;99537.30;110327;1231;112028;-61
2022/09/16 09:16:27;;;;;;;5.70;1.30;;;;;;;14.36;65.92;99524.19;110261;1232;139852;-61
2022/09/16 09:19:34;;;;;;;9.50;1.20;;;;;;;14.42;65.76;99515.25;110175;1230;97712;-60
2022/09/16 09:22:24;;;;;;;6.30;1.30;;;;;;;14.50;65.19;99522.55;110317;1230;97580;-62
2022/09/16 09:25:12;;;;;;;4.60;0.90;;;;;;;14.49;64.50;99527.16;110221;1230;97622;-61
2022/09/16 09:27:49;;;;;;;5.00;1.30;;;;;;;14.41;63.92;99524.70;110283;1230;111720;-61
2022/09/16 09:30:26;;;;;;;5.90;1.00;;;;;;;14.34;63.85;99519.82;110285;1231;138119;-63
2022/09/16 09:33:03;;;;;;;9.90;1.40;;;;;;;14.26;64.05;99522.41;110221;1233;108808;-60
2022/09/16 09:36:13;;;;;;;10.50;2.10;;;;;;;14.24;64.17;99517.02;110192;1230;138447;-62
2022/09/16 09:38:50;;;;;;;6.10;1.60;;;;;;;14.23;63.52;99524.23;109835;1232;97705;-59
2022/09/16 09:41:35;;;;;;;9.50;1.60;;;;;;;14.27;63.31;99519.05;110130;1230;138540;-60
2022/09/16 09:44:22;;;;;;;5.30;1.40;;;;;;;14.37;63.65;99510.77;110369;1230;101737;-60
2022/09/16 09:46:53;;;;;;;11.40;1.40;;;;;;;14.53;63.85;99512.44;110199;1230;138783;-63
2022/09/16 09:49:30;;;;;;;4.70;1.20;;;;;;;14.72;63.24;99525.55;111960;1230;98149;-60
2022/09/16 09:52:00;;;;;;;5.50;1.20;;;;;;;14.73;62.33;99519.20;112373;1232;96318;-61
2022/09/16 09:54:32;;;;;;;11.50;2.10;;;;;;;14.67;62.22;99517.86;111561;1230;137177;-62
2022/09/16 09:57:05;;;;;;;10.00;1.20;;;;;;;14.70;62.36;99515.63;110220;1230;99570;-60
2022/09/16 09:59:49;;;;;;;6.50;1.40;;;;;;;14.77;62.22;99518.09;110078;1230;138256;-60
2022/09/16 10:02:21;;;;;;;11.50;1.50;;;;;;;14.82;61.32;99509.96;110288;1230;97713;-60
2022/09/16 10:04:47;;;;;;;2.00;1.10;;;;;;;14.92;61.27;99505.92;110231;1231;138031;-59
2022/09/16 10:07:16;;;;;;;8.70;1.10;;;;;;;15.03;61.20;99505.09;110263;1230;97574;-60
2022/09/16 10:09:59;;;;;;;5.60;1.20;;;;;;;15.05;61.35;99507.23;110257;1232;102030;-61
2022/09/16 10:12:30;;;;;;;6.60;1.40;;;;;;;15.03;61.38;99505.80;110187;1231;138657;-60
2022/09/16 10:14:55;;;;;;;5.90;1.50;;;;;;;14.97;60.97;99510.27;110214;1232;97744;-60
2022/09/16 10:17:21;;;;;;;5.00;1.00;;;;;;;14.92;60.90;99515.13;110139;1230;137597;-60
2022/09/16 10:19:59;;;;;;;5.60;0.90;;;;;;;14.97;60.73;99495.98;110391;1230;97688;-62
2022/09/16 10:22:30;;;;;;;4.90;0.80;;;;;;;15.11;60.77;99499.74;110204;1230;138196;-60
2022/09/16 10:24:58;;;;;;;8.40;1.40;;;;;;;15.18;60.70;99493.73;110364;1231;97559;-61
2022/09/16 10:27:34;;;;;;;11.60;1.30;;;;;;;15.27;60.54;99494.70;110325;1231;97655;-62
2022/09/16 10:30:15;;;;;;;6.90;0.80;;;;;;;15.33;59.15;99503.34;110222;1232;137622;-63
2022/09/16 10:32:53;;;;;;;12.30;1.60;;;;;;;15.32;59.43;99507.05;110293;1232;100457;-63
2022/09/16 10:35:27;;;;;;;4.20;0.90;;;;;;;15.24;58.10;99514.34;110246;1231;138733;-62
2022/09/16 10:37:58;;;;;;;7.30;1.10;;;;;;;15.16;57.75;99510.08;110397;1232;97709;-61
2022/09/16 10:40:25;;;;;;;8.50;1.10;;;;;;;15.20;57.98;99514.32;110210;1232;137767;-61
2022/09/16 10:42:52;;;;;;;6.40;1.10;;;;;;;15.28;57.79;99505.58;110473;1232;97828;-58
2022/09/16 10:45:35;;;;;;;8.50;1.20;;;;;;;15.38;58.04;99501.17;110431;1232;98120;-60
2022/09/16 10:48:06;;;;;;;14.20;1.60;;;;;;;15.54;58.23;99496.58;110360;1232;137589;-60
2022/09/16 10:50:32;;;;;;;8.60;1.50;;;;;;;15.64;57.96;99499.73;110432;1232;97689;-59
2022/09/16 10:52:57;;;;;;;8.60;0.90;;;;;;;15.56;57.06;99505.63;110398;1232;138674;-61
2022/09/16 10:55:28;;;;;;;7.90;1.40;;;;;;;15.45;57.62;99503.42;110518;1232;97746;-61
2022/09/16 10:58:15;;;;;;;6.20;1.30;;;;;;;15.49;57.13;99509.21;110367;1231;108536;-62
2022/09/16 11:00:58;;;;;;;5.70;1.20;;;;;;;15.51;56.76;99507.66;110569;1232;97756;-62
2022/09/16 11:03:42;;;;;;;6.50;0.90;;;;;;;15.47;56.51;99508.72;110337;1231;96963;-63
2022/09/16 11:06:26;;;;;;;8.00;1.00;;;;;;;15.46;56.23;99516.33;110278;1232;138159;-61
2022/09/16 11:09:20;;;;;;;3.90;0.90;;;;;;;15.46;55.78;99510.61;110403;1231;100610;-63
2022/09/16 11:11:48;;;;;;;2.70;0.90;;;;;;;15.43;55.47;99504.85;110188;1231;138615;-62
2022/09/16 11:14:41;;;;;;;8.70;1.00;;;;;;;15.42;55.23;99502.23;110394;1232;97679;-61
2022/09/16 11:17:42;;;;;;;6.40;0.70;;;;;;;15.41;54.33;99505.10;110352;1232;137963;-61
2022/09/16 11:20:39;;;;;;;8.30;1.30;;;;;;;15.38;54.62;99508.33;109844;1235;111134;-62
2022/09/16 11:23:26;;;;;;;8.10;1.30;;;;;;;15.34;54.69;99521.50;110253;1232;138645;-62
2022/09/16 11:26:02;;;;;;;9.30;1.30;;;;;;;15.10;55.21;99510.44;110419;1232;106148;-64
2022/09/16 11:28:37;;;;;;;4.10;0.60;;;;;;;14.82;56.02;99509.29;110280;1232;138561;-62
2022/09/16 11:31:40;;;;;;;3.50;0.70;;;;;;;14.67;56.68;99503.45;110442;1231;96578;-62
2022/09/16 11:34:42;;;;;;;3.60;1.00;;;;;;;14.77;57.36;99505.93;110256;1231;138193;-64
2022/09/16 11:37:30;;;;;;;8.20;0.70;;;;;;;14.94;57.73;99504.38;110462;1232;99408;-61
2022/09/16 11:40:07;;;;;;;5.40;0.50;;;;;;;15.10;57.40;99493.86;110392;1232;107404;-63
2022/09/16 11:42:45;;;;;;;3.60;0.90;;;;;;;15.22;56.83;99488.39;110410;1232;97608;-63
2022/09/16 11:45:25;;;;;;;5.60;0.70;;;;;;;15.35;56.42;99487.02;110357;1232;96406;-61
2022/09/16 11:47:53;;;;;;;4.50;0.60;;;;;;;15.55;56.01;99482.84;110241;1232;137720;-61